Time;durP1;ratioP1;P1;durP2;ratioP2;P2;SDS_P1;SDS_P2;PMS_P1;PMS_P2;Temp;Humidity;BMP_temperature;BMP_pressure;BME280_temperature;BME280_humidity;BME280_pressure;Samples;Min_cycle;Max_cycle;Signal;HPM_P1;HPM_P2
2021/06/10 00:01:05;;;;;;;11.77;7.32;;;;;;;14.51;89.19;99470.22;5083100;28;20044;-82
2021/06/10 00:03:31;;;;;;;14.98;7.03;;;;;;;14.48;89.39;99467.03;5071419;28;20129;-82
2021/06/10 00:05:57;;;;;;;12.85;7.43;;;;;;;14.62;88.92;99471.56;5081218;28;20051;-82
2021/06/10 00:08:24;;;;;;;8.30;6.95;;;;;;;14.50;88.75;99470.44;5090959;28;20036;-82
2021/06/10 00:10:53;;;;;;;9.90;7.28;;;;;;;14.40;89.25;99469.97;5083024;28;20053;-82
2021/06/10 00:13:23;;;;;;;8.40;7.00;;;;;;;14.46;89.05;99471.88;5088543;28;20083;-81
2021/06/10 00:15:50;;;;;;;;;;;;;;;14.43;89.24;99481.31;5091289;28;20427;-81
2021/06/10 00:18:16;;;;;;;12.25;7.45;;;;;;;14.59;88.80;99490.22;5089721;28;19920;-82
2021/06/10 00:20:42;;;;;;;13.77;6.63;;;;;;;14.38;89.29;99477.50;5085620;28;20055;-82
2021/06/10 00:23:09;;;;;;;11.85;6.70;;;;;;;14.38;89.57;99486.56;5072412;28;20492;-81
2021/06/10 00:25:36;;;;;;;7.97;6.35;;;;;;;14.44;89.34;99482.19;5082138;28;20052;-81
2021/06/10 00:28:06;;;;;;;9.70;6.55;;;;;;;14.38;88.96;99467.44;5088214;28;20104;-81
2021/06/10 00:30:34;;;;;;;8.00;6.35;;;;;;;14.46;88.96;99483.66;5086834;28;20233;-81
2021/06/10 00:33:01;;;;;;;8.70;6.28;;;;;;;14.35;89.14;99478.78;5084078;28;20093;-82
2021/06/10 00:35:28;;;;;;;7.80;6.35;;;;;;;14.32;88.99;99490.94;5077437;28;20091;-82
2021/06/10 00:37:57;;;;;;;13.27;7.22;;;;;;;14.40;89.07;99480.91;5073444;28;20052;-81
2021/06/10 00:40:24;;;;;;;11.05;6.20;;;;;;;14.24;89.11;99480.19;5091032;28;20048;-81
2021/06/10 00:42:50;;;;;;;10.05;6.80;;;;;;;14.36;89.84;99488.66;5090274;28;20116;-81
2021/06/10 00:45:21;;;;;;;9.27;6.13;;;;;;;14.26;88.66;99485.47;5094535;28;20070;-81
2021/06/10 00:47:49;;;;;;;10.23;7.05;;;;;;;14.20;89.75;99478.88;5094264;28;20048;-82
2021/06/10 00:50:20;;;;;;;9.05;7.07;;;;;;;14.40;89.54;99489.94;5095507;28;20074;-82
2021/06/10 00:52:47;;;;;;;;;;;;;;;14.46;89.10;99494.59;5076595;28;20449;-82
2021/06/10 00:55:14;;;;;;;7.80;6.80;;;;;;;14.32;88.62;99469.06;5075176;28;20010;-82
2021/06/10 00:57:41;;;;;;;10.70;6.63;;;;;;;14.23;88.65;99481.22;5075121;28;20052;-82
2021/06/10 01:00:09;;;;;;;9.18;6.20;;;;;;;14.40;88.45;99491.84;5080030;28;20484;-82
2021/06/10 01:02:36;;;;;;;33.13;7.75;;;;;;;14.27;88.42;99488.00;5087385;28;20078;-82
2021/06/10 01:05:04;;;;;;;8.40;6.75;;;;;;;14.18;88.68;99486.44;5088544;28;20553;-82
2021/06/10 01:07:41;;;;;;;15.18;6.50;;;;;;;14.24;88.06;99493.00;5082826;28;20423;-82
2021/06/10 01:10:16;;;;;;;8.20;6.78;;;;;;;14.14;88.38;99483.25;5082101;28;20045;-82
2021/06/10 01:12:53;;;;;;;8.13;6.40;;;;;;;14.26;87.96;99488.19;5093010;28;20138;-82
2021/06/10 01:15:24;;;;;;;10.27;6.75;;;;;;;14.20;87.64;99478.88;5092679;28;20036;-81
2021/06/10 01:17:51;;;;;;;9.80;7.03;;;;;;;14.02;87.85;99484.88;5077243;28;20048;-82
2021/06/10 01:20:25;;;;;;;7.97;6.93;;;;;;;13.87;88.67;99478.66;5075711;28;20052;-81
2021/06/10 01:23:01;;;;;;;10.25;7.07;;;;;;;13.82;89.51;99476.53;5074458;28;20048;-82
2021/06/10 01:25:45;;;;;;;12.30;6.82;;;;;;;13.70;89.35;99470.75;5089965;28;20476;-82
2021/06/10 01:28:14;;;;;;;8.20;7.13;;;;;;;13.78;89.69;99475.22;5088943;28;20188;-82
2021/06/10 01:30:46;;;;;;;12.32;7.35;;;;;;;13.81;89.67;99475.66;5092626;28;20055;-82
2021/06/10 01:33:15;;;;;;;13.35;6.78;;;;;;;13.83;89.46;99469.16;5074503;28;20102;-82
2021/06/10 01:35:45;;;;;;;10.43;6.80;;;;;;;13.94;88.99;99479.53;5073724;28;20056;-81
2021/06/10 01:38:14;;;;;;;11.43;7.75;;;;;;;13.87;89.92;99467.75;5074769;28;20060;-82
2021/06/10 01:40:42;;;;;;;9.15;7.75;;;;;;;13.90;89.46;99470.06;5074838;28;20055;-81
2021/06/10 01:43:09;;;;;;;9.52;7.22;;;;;;;13.75;90.20;99471.00;5081851;28;20514;-82
2021/06/10 01:45:37;;;;;;;9.98;7.72;;;;;;;13.71;90.25;99458.78;5086859;28;20055;-82
2021/06/10 01:48:04;;;;;;;15.95;8.80;;;;;;;13.70;90.11;99464.44;5093686;28;20044;-82
2021/06/10 01:50:31;;;;;;;9.13;7.28;;;;;;;13.59;90.30;99444.84;5087462;28;20040;-82
2021/06/10 01:53:00;;;;;;;8.07;6.88;;;;;;;13.75;90.42;99476.47;5087511;28;20048;-82
2021/06/10 01:55:28;;;;;;;7.38;6.57;;;;;;;13.81;90.25;99459.28;5075057;28;20394;-82
2021/06/10 01:57:57;;;;;;;17.63;7.43;;;;;;;13.82;90.36;99462.88;5086107;28;20452;-82
2021/06/10 02:00:24;;;;;;;12.05;7.82;;;;;;;13.84;89.55;99454.47;5076659;28;20499;-82
2021/06/10 02:02:53;;;;;;;9.38;6.78;;;;;;;13.88;89.16;99451.16;5084128;28;20051;-82
2021/06/10 02:05:22;;;;;;;9.13;7.18;;;;;;;13.90;88.09;99462.72;5093063;28;20044;-82
2021/06/10 02:07:49;;;;;;;12.07;7.15;;;;;;;13.73;88.30;99461.31;5086254;28;20052;-82
2021/06/10 02:10:19;;;;;;;11.43;6.78;;;;;;;13.74;88.46;99457.53;5074598;28;20048;-82
2021/06/10 02:12:46;;;;;;;7.88;6.20;;;;;;;13.64;88.41;99452.44;5073434;28;20105;-82
2021/06/10 02:15:22;;;;;;;16.15;7.60;;;;;;;13.55;88.24;99449.00;5091874;28;20051;-82
2021/06/10 02:17:48;;;;;;;11.50;6.32;;;;;;;13.51;88.38;99452.31;5091953;28;20146;-82
2021/06/10 02:20:18;;;;;;;9.65;6.43;;;;;;;13.43;88.95;99458.78;5086066;28;20069;-82
2021/06/10 02:22:45;;;;;;;10.40;6.82;;;;;;;13.39;89.04;99443.81;5088960;28;20054;-82
2021/06/10 02:25:12;;;;;;;14.82;6.93;;;;;;;13.35;89.26;99432.41;5092482;28;20089;-82
2021/06/10 02:27:38;;;;;;;9.30;6.95;;;;;;;13.42;89.73;99449.72;5080297;28;20098;-82
2021/06/10 02:30:07;;;;;;;8.65;6.35;;;;;;;13.26;89.57;99425.38;5077232;28;20102;-82
2021/06/10 02:32:35;;;;;;;15.63;7.20;;;;;;;13.40;89.52;99448.25;5073566;28;20078;-82
2021/06/10 02:35:03;;;;;;;12.63;7.32;;;;;;;13.37;89.49;99448.59;5081027;28;20411;-82
2021/06/10 02:37:31;;;;;;;13.65;6.90;;;;;;;13.35;89.30;99454.25;5093537;28;20090;-82
2021/06/10 02:39:58;;;;;;;11.18;7.10;;;;;;;13.32;90.36;99465.53;5088029;28;20491;-82
2021/06/10 02:42:26;;;;;;;7.43;6.03;;;;;;;13.45;88.78;99462.97;5089770;28;20055;-82
2021/06/10 02:44:55;;;;;;;11.25;7.10;;;;;;;13.42;88.50;99457.91;5092839;28;20093;-82
2021/06/10 02:47:23;;;;;;;10.82;6.95;;;;;;;13.41;88.28;99441.72;5085215;28;20047;-82
2021/06/10 02:49:53;;;;;;;8.63;6.97;;;;;;;13.31;88.37;99443.91;5090151;28;20472;-82
2021/06/10 02:52:21;;;;;;;18.65;7.50;;;;;;;13.11;89.01;99439.09;5073554;28;20048;-82
2021/06/10 02:54:49;;;;;;;9.70;6.55;;;;;;;13.12;88.67;99448.16;5090274;28;20569;-81
2021/06/10 02:57:19;;;;;;;15.30;6.60;;;;;;;13.00;89.41;99445.09;5090767;28;20044;-81
2021/06/10 02:59:47;;;;;;;9.38;6.80;;;;;;;12.91;89.51;99441.63;5076418;28;20287;-81
2021/06/10 03:02:16;;;;;;;18.00;6.72;;;;;;;12.97;90.46;99448.19;5086694;28;20044;-81
2021/06/10 03:04:43;;;;;;;10.70;6.90;;;;;;;12.98;89.73;99425.34;5092197;28;20040;-81
2021/06/10 03:07:12;;;;;;;7.28;6.47;;;;;;;13.03;89.48;99445.53;5082969;28;20286;-82
2021/06/10 03:09:39;;;;;;;9.00;6.05;;;;;;;13.02;89.71;99443.00;5092672;28;20085;-82
2021/06/10 03:12:10;;;;;;;7.20;5.53;;;;;;;12.98;90.09;99431.63;5077352;28;20043;-82
2021/06/10 03:14:38;;;;;;;11.63;6.30;;;;;;;13.00;89.83;99443.19;5071953;28;20059;-82
2021/06/10 03:17:04;;;;;;;10.32;6.75;;;;;;;13.21;89.60;99449.69;5089580;28;20048;-82
2021/06/10 03:19:32;;;;;;;7.78;6.80;;;;;;;13.06;89.24;99438.84;5092308;28;20055;-82
2021/06/10 03:21:58;;;;;;;8.07;6.47;;;;;;;13.06;89.85;99447.88;5092216;28;20048;-81
2021/06/10 03:24:25;;;;;;;12.35;7.22;;;;;;;12.99;90.18;99435.19;5091940;28;20040;-81
2021/06/10 03:26:52;;;;;;;10.73;6.65;;;;;;;12.97;91.01;99432.66;5080822;28;20052;-82
2021/06/10 03:29:21;;;;;;;10.32;6.68;;;;;;;13.13;91.23;99439.75;5088808;28;20052;-81
2021/06/10 03:31:48;;;;;;;10.77;6.85;;;;;;;13.17;91.33;99452.00;5088333;28;20056;-82
2021/06/10 03:34:17;;;;;;;7.40;6.47;;;;;;;13.17;91.04;99449.25;5091575;28;20071;-82
2021/06/10 03:36:44;;;;;;;10.15;6.75;;;;;;;13.18;91.43;99456.38;5090214;28;20480;-82
2021/06/10 03:39:11;;;;;;;8.45;6.20;;;;;;;13.21;90.78;99446.97;5091149;28;20055;-82
2021/06/10 03:41:38;;;;;;;21.65;8.70;;;;;;;13.26;90.16;99456.28;5091365;28;20051;-82
2021/06/10 03:44:07;;;;;;;7.63;6.30;;;;;;;13.18;90.25;99445.47;5089666;28;20048;-81
2021/06/10 03:46:36;;;;;;;8.13;6.57;;;;;;;13.25;91.00;99459.19;5091283;28;20055;-82
2021/06/10 03:49:03;;;;;;;9.18;7.45;;;;;;;13.15;91.52;99447.75;5090048;28;20056;-82
2021/06/10 03:51:29;;;;;;;11.70;6.75;;;;;;;13.32;90.64;99457.34;5078396;28;20102;-82
2021/06/10 03:53:56;;;;;;;7.53;5.88;;;;;;;13.31;90.32;99457.56;5086521;28;20054;-82
2021/06/10 03:56:22;;;;;;;10.30;7.30;;;;;;;13.30;90.97;99461.34;5089945;28;20044;-83
2021/06/10 03:58:49;;;;;;;11.05;5.93;;;;;;;13.23;90.83;99453.06;5091484;28;20048;-82
2021/06/10 04:01:15;;;;;;;7.32;6.10;;;;;;;13.26;91.04;99460.88;5088157;28;20448;-82
2021/06/10 04:03:43;;;;;;;6.15;5.30;;;;;;;13.42;90.38;99463.38;5082726;28;20043;-81
2021/06/10 04:06:12;;;;;;;9.27;5.88;;;;;;;13.48;89.75;99455.44;5089131;28;20044;-81
2021/06/10 04:08:39;;;;;;;7.93;5.65;;;;;;;13.34;89.43;99452.59;5086543;28;20118;-82
2021/06/10 04:11:08;;;;;;;7.63;6.75;;;;;;;13.42;88.45;99448.88;5079752;28;20048;-82
2021/06/10 04:13:34;;;;;;;10.18;6.88;;;;;;;13.26;89.34;99452.69;5078436;28;20127;-83
2021/06/10 04:16:00;;;;;;;10.70;6.30;;;;;;;13.25;89.73;99456.47;5089514;28;20282;-83
2021/06/10 04:18:27;;;;;;;12.38;6.70;;;;;;;13.27;89.64;99452.47;5090019;28;20048;-83
2021/06/10 04:20:55;;;;;;;7.22;5.95;;;;;;;13.32;89.54;99448.31;5082802;28;20048;-83
2021/06/10 04:23:21;;;;;;;8.00;6.10;;;;;;;13.40;89.65;99445.50;5074430;28;20089;-83
2021/06/10 04:25:48;;;;;;;8.68;6.55;;;;;;;13.48;89.73;99463.63;5089372;28;20056;-82
2021/06/10 04:28:14;;;;;;;9.50;6.90;;;;;;;13.57;89.73;99462.47;5073524;28;20052;-82
2021/06/10 04:30:40;;;;;;;6.82;5.78;;;;;;;13.69;89.60;99462.78;5071895;28;20057;-82
2021/06/10 04:33:06;;;;;;;13.45;6.18;;;;;;;13.63;89.21;99448.84;5089500;28;20089;-82
2021/06/10 04:35:33;;;;;;;10.02;6.60;;;;;;;13.76;89.79;99453.56;5087548;28;20052;-82
2021/06/10 04:38:01;;;;;;;6.50;5.85;;;;;;;13.80;89.36;99445.81;5077927;28;20065;-82
2021/06/10 04:40:27;;;;;;;7.25;4.97;;;;;;;13.96;89.41;99463.81;5081299;28;20504;-82
2021/06/10 04:42:56;;;;;;;6.45;5.40;;;;;;;13.97;89.31;99466.34;5088890;28;20050;-82
2021/06/10 04:45:22;;;;;;;7.72;5.70;;;;;;;14.20;88.98;99465.22;5071266;28;20082;-82
2021/06/10 04:47:48;;;;;;;5.70;5.10;;;;;;;14.31;88.30;99450.97;5081383;28;20056;-82
2021/06/10 04:50:15;;;;;;;6.85;5.75;;;;;;;14.38;88.51;99463.81;5091991;28;20098;-82
2021/06/10 04:52:41;;;;;;;8.00;5.75;;;;;;;14.46;88.24;99464.50;5087857;28;20133;-81
2021/06/10 04:55:09;;;;;;;5.95;4.93;;;;;;;14.50;88.13;99454.03;5082495;28;20443;-81
2021/06/10 04:57:36;;;;;;;6.20;5.20;;;;;;;14.78;87.61;99470.34;5090544;28;20040;-82
2021/06/10 05:00:04;;;;;;;7.95;5.72;;;;;;;15.18;86.38;99467.75;5090211;28;20052;-82
2021/06/10 05:02:30;;;;;;;7.82;5.28;;;;;;;15.68;84.77;99469.28;5072108;28;20106;-82
2021/06/10 05:04:57;;;;;;;7.70;5.20;;;;;;;16.03;82.64;99460.84;5090153;28;20476;-82
2021/06/10 05:07:23;;;;;;;5.43;4.88;;;;;;;16.16;82.26;99470.94;5090541;28;20048;-83
2021/06/10 05:09:49;;;;;;;5.93;4.88;;;;;;;16.04;82.34;99474.34;5089251;28;20105;-82
2021/06/10 05:12:17;;;;;;;8.45;5.10;;;;;;;16.23;81.86;99472.63;5089691;28;20048;-82
2021/06/10 05:14:43;;;;;;;7.65;4.30;;;;;;;16.46;80.55;99460.31;5071347;28;20048;-82
2021/06/10 05:17:09;;;;;;;6.10;4.88;;;;;;;16.63;80.21;99472.50;5087117;28;20052;-82
2021/06/10 05:19:35;;;;;;;7.30;5.13;;;;;;;16.67;80.16;99467.41;5089043;28;20071;-82
2021/06/10 05:22:02;;;;;;;5.00;4.50;;;;;;;17.06;79.13;99457.34;5083416;28;20055;-82
2021/06/10 05:24:29;;;;;;;5.20;4.68;;;;;;;17.46;77.82;99458.97;5089325;28;20044;-82
2021/06/10 05:26:55;;;;;;;10.32;5.30;;;;;;;17.47;77.83;99455.16;5090040;28;20043;-82
2021/06/10 05:29:23;;;;;;;7.55;5.03;;;;;;;17.48;78.07;99454.09;5073825;28;20052;-82
2021/06/10 05:31:49;;;;;;;5.85;5.25;;;;;;;17.77;77.63;99460.84;5094035;28;20044;-82
2021/06/10 05:34:16;;;;;;;7.80;4.95;;;;;;;18.12;76.02;99442.97;5093791;28;20056;-82
2021/06/10 05:36:42;;;;;;;6.30;4.68;;;;;;;18.12;76.53;99456.75;5082133;28;20056;-82
2021/06/10 05:39:08;;;;;;;6.28;5.38;;;;;;;18.27;75.25;99454.44;5090254;28;20052;-81
2021/06/10 05:41:34;;;;;;;4.95;4.20;;;;;;;18.37;74.96;99452.00;5083615;28;20060;-81
2021/06/10 05:44:01;;;;;;;5.75;4.60;;;;;;;18.56;74.52;99460.25;5084403;28;20040;-82
2021/06/10 05:46:29;;;;;;;6.20;4.93;;;;;;;18.70;73.72;99460.97;5084972;28;20496;-82
2021/06/10 05:48:55;;;;;;;5.25;4.43;;;;;;;19.05;72.79;99472.16;5093863;28;20066;-81
2021/06/10 05:51:21;;;;;;;6.28;4.82;;;;;;;19.37;72.52;99466.41;5082611;28;20547;-81
2021/06/10 05:53:47;;;;;;;10.20;6.40;;;;;;;19.19;72.97;99467.31;5086319;28;20048;-81
2021/06/10 05:56:14;;;;;;;8.50;7.45;;;;;;;19.52;72.18;99474.25;5081744;28;20068;-82
2021/06/10 05:58:40;;;;;;;7.88;7.07;;;;;;;19.34;72.47;99472.41;5084798;28;20055;-81
2021/06/10 06:01:06;;;;;;;10.18;6.90;;;;;;;19.28;72.92;99462.31;5080444;28;20315;-81
2021/06/10 06:03:34;;;;;;;7.65;6.78;;;;;;;19.39;72.30;99464.28;5073840;28;20049;-82
2021/06/10 06:06:00;;;;;;;9.55;6.75;;;;;;;19.52;72.70;99471.47;5080719;28;20048;-81
2021/06/10 06:08:27;;;;;;;10.25;7.75;;;;;;;19.89;71.42;99465.00;5094159;28;20044;-81
2021/06/10 06:10:55;;;;;;;11.15;8.00;;;;;;;19.96;71.30;99477.59;5085722;28;20040;-81
2021/06/10 06:13:23;;;;;;;9.02;7.90;;;;;;;20.02;69.52;99475.78;5089523;28;20052;-82
2021/06/10 06:15:51;;;;;;;10.80;7.75;;;;;;;20.04;70.88;99472.78;5080531;28;20052;-81
2021/06/10 06:18:17;;;;;;;9.80;7.45;;;;;;;20.13;69.59;99486.00;5093220;28;20079;-81
2021/06/10 06:20:45;;;;;;;15.35;8.15;;;;;;;20.60;68.98;99489.81;5090882;28;20052;-81
2021/06/10 06:23:11;;;;;;;9.75;8.75;;;;;;;20.67;69.43;99483.09;5090416;28;20041;-81
2021/06/10 06:25:37;;;;;;;11.80;8.15;;;;;;;20.44;68.90;99483.91;5087353;28;20060;-81
2021/06/10 06:28:04;;;;;;;8.90;7.82;;;;;;;20.73;68.54;99488.72;5073282;28;20121;-81
2021/06/10 06:30:30;;;;;;;10.88;8.35;;;;;;;20.98;67.23;99483.72;5083312;28;20051;-80
2021/06/10 06:32:57;;;;;;;10.57;7.72;;;;;;;21.06;67.42;99482.47;5093452;28;20463;-80
2021/06/10 06:35:23;;;;;;;11.20;7.70;;;;;;;21.14;66.90;99484.88;5088243;28;20101;-80
2021/06/10 06:37:50;;;;;;;11.07;7.35;;;;;;;21.52;66.00;99480.59;5087890;28;20059;-81
2021/06/10 06:40:19;;;;;;;9.88;7.63;;;;;;;21.56;66.52;99484.56;5076039;28;20047;-81
2021/06/10 06:42:45;;;;;;;11.55;7.75;;;;;;;21.76;66.17;99488.78;5092965;28;20526;-81
2021/06/10 06:45:12;;;;;;;12.98;7.90;;;;;;;21.96;65.14;99481.91;5088251;28;20050;-81
2021/06/10 06:47:38;;;;;;;8.55;7.65;;;;;;;21.87;65.34;99490.59;5088234;28;20044;-80
2021/06/10 06:50:05;;;;;;;10.65;8.00;;;;;;;21.77;65.86;99484.94;5092433;28;20404;-80
2021/06/10 06:52:31;;;;;;;10.70;8.00;;;;;;;21.68;65.58;99495.56;5090980;28;20048;-81
2021/06/10 06:54:59;;;;;;;8.95;7.80;;;;;;;21.25;66.24;99488.66;5089633;28;20048;-80
2021/06/10 06:57:25;;;;;;;10.18;8.32;;;;;;;21.20;67.42;99497.69;5073663;28;20056;-80
2021/06/10 06:59:51;;;;;;;9.23;8.00;;;;;;;20.84;67.90;99494.22;5089942;28;20050;-80
2021/06/10 07:02:18;;;;;;;10.00;7.57;;;;;;;20.75;67.97;99503.97;5093156;28;20097;-80
2021/06/10 07:04:44;;;;;;;8.80;7.45;;;;;;;20.68;68.74;99501.34;5086009;28;20044;-80
2021/06/10 07:07:10;;;;;;;10.10;7.85;;;;;;;20.62;68.60;99495.91;5072736;28;20049;-80
2021/06/10 07:09:36;;;;;;;10.27;8.55;;;;;;;21.10;68.79;99503.00;5087010;28;20040;-80
2021/06/10 07:12:05;;;;;;;16.67;7.93;;;;;;;21.48;66.99;99495.16;5072534;28;20045;-80
2021/06/10 07:14:31;;;;;;;9.95;8.38;;;;;;;21.54;67.69;99496.97;5079523;28;20377;-80
2021/06/10 07:16:58;;;;;;;14.57;8.50;;;;;;;21.74;64.93;99494.56;5092522;28;20055;-80
2021/06/10 07:19:25;;;;;;;12.80;8.52;;;;;;;21.68;66.21;99495.56;5083762;28;20131;-81
2021/06/10 07:21:51;;;;;;;11.00;7.68;;;;;;;22.31;65.86;99489.06;5084561;28;20044;-80
2021/06/10 07:24:18;;;;;;;9.05;7.82;;;;;;;22.51;64.64;99494.13;5072957;28;20040;-81
2021/06/10 07:26:44;;;;;;;17.30;8.40;;;;;;;22.34;64.60;99486.69;5081872;28;20105;-81
2021/06/10 07:29:14;;;;;;;11.73;7.55;;;;;;;22.49;61.91;99496.28;5091109;28;20055;-80
2021/06/10 07:31:40;;;;;;;10.77;7.20;;;;;;;22.49;63.06;99502.66;5090391;28;20044;-80
2021/06/10 07:34:12;;;;;;;12.55;7.75;;;;;;;22.45;63.80;99509.81;5087498;28;20097;-79
2021/06/10 07:36:39;;;;;;;9.55;6.97;;;;;;;22.92;63.26;99503.78;5089608;28;20048;-80
2021/06/10 07:39:07;;;;;;;9.38;7.50;;;;;;;23.10;61.38;99494.34;5091919;28;20040;-81
2021/06/10 07:41:34;;;;;;;10.63;7.60;;;;;;;23.10;62.92;99486.00;5092152;28;20109;-81
2021/06/10 07:44:00;;;;;;;9.45;7.68;;;;;;;23.35;62.85;99500.44;5091557;28;20048;-81
2021/06/10 07:46:30;;;;;;;10.20;7.25;;;;;;;23.43;64.05;99505.53;5091939;28;20491;-81
2021/06/10 07:48:58;;;;;;;10.32;7.60;;;;;;;23.44;60.72;99483.06;5086025;28;20044;-81
2021/06/10 07:51:24;;;;;;;10.55;8.00;;;;;;;23.56;59.61;99502.31;5075669;28;20048;-81
2021/06/10 07:53:51;;;;;;;10.70;7.03;;;;;;;23.50;60.61;99492.25;5091141;28;20059;-79
2021/06/10 07:56:20;;;;;;;9.75;6.85;;;;;;;23.76;61.61;99492.53;5090666;28;20040;-79
2021/06/10 07:58:46;;;;;;;11.35;7.25;;;;;;;23.55;60.51;99502.59;5090952;28;20450;-79
2021/06/10 08:01:12;;;;;;;9.90;7.65;;;;;;;23.67;58.82;99492.97;5089708;28;20043;-80
2021/06/10 08:03:40;;;;;;;13.93;6.93;;;;;;;23.85;59.26;99496.50;5090713;28;20256;-79
2021/06/10 08:06:11;;;;;;;7.60;6.80;;;;;;;23.91;57.14;99489.91;5090212;28;20039;-80
2021/06/10 08:08:38;;;;;;;11.82;7.82;;;;;;;24.03;57.70;99498.03;5086798;28;20047;-81
2021/06/10 08:11:07;;;;;;;10.57;7.15;;;;;;;23.92;56.59;99499.06;5090139;28;20052;-80
2021/06/10 08:13:34;;;;;;;10.95;8.10;;;;;;;23.94;56.66;99506.03;5072023;28;20159;-80
2021/06/10 08:16:00;;;;;;;8.25;6.97;;;;;;;23.44;57.38;99496.06;5082294;28;20487;-81
2021/06/10 08:18:28;;;;;;;10.80;8.35;;;;;;;24.05;58.23;99506.94;5088821;28;20060;-80
2021/06/10 08:20:57;;;;;;;9.07;8.15;;;;;;;24.01;57.12;99497.44;5083528;28;20079;-80
2021/06/10 08:23:23;;;;;;;10.05;8.00;;;;;;;23.99;58.60;99497.72;5090663;28;20492;-80
2021/06/10 08:25:50;;;;;;;10.07;7.72;;;;;;;24.15;59.99;99490.34;5088898;28;20043;-80
2021/06/10 08:28:16;;;;;;;8.55;7.50;;;;;;;24.30;58.57;99499.88;5087537;28;20047;-80
2021/06/10 08:30:43;;;;;;;12.07;8.93;;;;;;;24.08;58.46;99500.84;5088117;28;20049;-80
2021/06/10 08:33:09;;;;;;;10.43;8.15;;;;;;;24.60;58.00;99498.44;5090520;28;20055;-80
2021/06/10 08:35:36;;;;;;;9.18;8.05;;;;;;;24.56;58.21;99495.34;5090846;28;20433;-80
2021/06/10 08:38:07;;;;;;;10.77;9.35;;;;;;;24.73;57.17;99490.47;5088271;28;20121;-80
2021/06/10 08:40:34;;;;;;;9.73;8.15;;;;;;;24.98;56.89;99494.44;5098233;28;20503;-80
2021/06/10 08:43:00;;;;;;;10.68;8.93;;;;;;;24.98;56.91;99490.84;5089702;28;20048;-80
2021/06/10 08:45:29;;;;;;;9.63;8.63;;;;;;;24.94;55.05;99495.28;5087801;28;20488;-80
2021/06/10 08:47:55;;;;;;;14.25;9.05;;;;;;;24.83;56.40;99492.44;5079759;28;20236;-80
2021/06/10 08:50:23;;;;;;;14.63;8.73;;;;;;;24.86;55.55;99491.91;5090978;28;20059;-79
2021/06/10 08:52:51;;;;;;;12.70;8.80;;;;;;;24.57;56.44;99494.25;5091286;28;20059;-80
2021/06/10 08:55:19;;;;;;;10.02;8.55;;;;;;;24.55;55.74;99488.94;5090369;28;20044;-81
2021/06/10 08:57:46;;;;;;;10.25;9.23;;;;;;;24.39;56.25;99473.28;5089832;28;20048;-80
2021/06/10 09:00:15;;;;;;;10.70;9.50;;;;;;;24.14;56.57;99487.84;5087344;28;20052;-81
2021/06/10 09:02:49;;;;;;;11.80;10.57;;;;;;;24.04;56.72;99488.59;5083907;28;20132;-81
2021/06/10 09:05:20;;;;;;;12.30;9.93;;;;;;;24.23;55.96;99483.47;5094256;28;20036;-80
2021/06/10 09:11:12;;;;;;;14.85;9.27;;;;;;;24.61;58.02;99489.00;5072879;28;20174;-81
2021/06/10 09:13:41;;;;;;;11.88;10.27;;;;;;;24.56;57.25;99500.91;5092702;28;20048;-81
2021/06/10 09:16:22;;;;;;;11.67;10.43;;;;;;;24.86;55.81;99493.84;5077013;28;20557;-80
2021/06/10 09:18:56;;;;;;;11.60;10.05;;;;;;;24.90;55.54;99492.19;5100522;28;20047;-81
2021/06/10 09:21:34;;;;;;;11.82;9.65;;;;;;;25.36;58.58;99484.00;5093112;28;20515;-80
2021/06/10 09:24:22;;;;;;;11.05;8.93;;;;;;;25.45;56.27;99484.31;5092891;28;20044;-80
2021/06/10 09:26:58;;;;;;;18.13;10.15;;;;;;;25.32;56.65;99491.22;5076749;28;20063;-81
2021/06/10 09:29:42;;;;;;;12.45;10.73;;;;;;;25.18;56.35;99481.72;5088322;28;20075;-81
2021/06/10 09:32:23;;;;;;;11.02;9.93;;;;;;;25.55;56.43;99478.78;5077751;28;20048;-80
2021/06/10 09:34:52;;;;;;;18.85;11.02;;;;;;;25.51;54.13;99477.63;5077267;28;20045;-79
2021/06/10 09:37:30;;;;;;;12.30;9.57;;;;;;;25.40;56.02;99481.53;5075134;28;20404;-80
2021/06/10 09:39:58;;;;;;;16.15;10.43;;;;;;;25.40;56.18;99478.75;5085556;28;20048;-80
2021/06/10 09:42:30;;;;;;;12.23;11.00;;;;;;;25.50;53.40;99484.31;5089985;28;20465;-80
2021/06/10 09:45:00;;;;;;;13.35;11.23;;;;;;;25.71;52.79;99474.03;5079826;28;20577;-81
2021/06/10 09:47:34;;;;;;;12.07;9.45;;;;;;;25.43;56.21;99476.25;5088847;28;20047;-80
2021/06/10 09:50:19;;;;;;;13.23;10.27;;;;;;;25.48;53.92;99480.16;5084223;28;20044;-80
2021/06/10 09:52:51;;;;;;;14.73;11.43;;;;;;;25.64;53.12;99470.72;5086707;28;20044;-82
2021/06/10 09:55:43;;;;;;;16.55;12.25;;;;;;;25.74;52.29;99469.88;5092523;28;20048;-80
2021/06/10 09:58:41;;;;;;;12.48;10.60;;;;;;;25.42;53.41;99466.22;5080280;28;20131;-81
2021/06/10 10:01:11;;;;;;;11.98;10.00;;;;;;;25.85;53.15;99459.56;5072619;28;20059;-81
2021/06/10 10:03:41;;;;;;;14.60;11.25;;;;;;;25.50;52.37;99455.66;5074644;28;20127;-81
2021/06/10 10:06:17;;;;;;;12.95;10.35;;;;;;;25.27;54.48;99443.91;5075129;28;20053;-82
2021/06/10 10:08:45;;;;;;;13.80;11.85;;;;;;;25.64;53.95;99454.00;5075480;28;20040;-81
2021/06/10 10:11:24;;;;;;;20.50;11.35;;;;;;;25.84;54.46;99441.19;5086766;28;20044;-82
2021/06/10 10:13:53;;;;;;;15.27;11.65;;;;;;;25.83;53.90;99443.13;5081693;28;20084;-82
2021/06/10 10:16:22;;;;;;;14.15;11.00;;;;;;;26.17;57.04;99438.97;5080954;28;20045;-82
2021/06/10 10:18:50;;;;;;;14.32;11.35;;;;;;;25.92;52.28;99426.69;5086299;28;20509;-82
2021/06/10 10:21:17;;;;;;;11.93;10.70;;;;;;;26.07;50.75;99437.00;5086671;28;20086;-81
2021/06/10 10:37:39;;;;;;;16.95;11.20;;;;;;;26.54;47.77;99432.97;5072628;28;20492;-82
2021/06/10 10:40:22;;;;;;;14.55;12.10;;;;;;;26.71;47.26;99409.53;5070232;28;20076;-82
2021/06/10 10:42:51;;;;;;;14.68;11.52;;;;;;;27.03;46.64;99414.66;5072019;28;20056;-81
2021/06/10 10:45:22;;;;;;;15.57;11.35;;;;;;;27.00;47.81;99423.63;5076989;28;20036;-82
2021/06/10 10:47:59;;;;;;;15.43;11.93;;;;;;;26.95;47.89;99406.88;5091975;28;20052;-81
2021/06/10 10:50:37;;;;;;;15.60;12.55;;;;;;;27.11;49.35;99402.06;5093265;28;20415;-81
2021/06/10 10:53:08;;;;;;;15.45;12.63;;;;;;;27.28;47.49;99404.44;5091874;28;20059;-81
2021/06/10 10:55:35;;;;;;;16.23;13.10;;;;;;;27.09;47.12;99398.75;5093037;28;20134;-82
2021/06/10 10:58:08;;;;;;;16.58;12.40;;;;;;;26.83;47.92;99393.31;5093041;28;20117;-83
2021/06/10 11:01:01;;;;;;;18.08;12.15;;;;;;;27.11;48.33;99400.09;5092113;28;20139;-83
2021/06/10 11:03:36;;;;;;;15.63;11.25;;;;;;;27.46;49.56;99401.03;5074933;28;20044;-83
2021/06/10 11:06:48;;;;;;;15.43;11.65;;;;;;;27.25;48.40;99396.66;5092576;28;20105;-82
2021/06/10 11:09:15;;;;;;;18.20;12.05;;;;;;;27.46;47.17;99386.22;5056013;28;20423;-83
2021/06/10 11:12:10;;;;;;;15.00;11.57;;;;;;;27.23;47.38;99377.41;5092598;28;20056;-84
2021/06/10 11:14:58;;;;;;;16.65;12.65;;;;;;;27.96;48.57;99377.66;5091159;28;20075;-82
2021/06/10 11:17:29;;;;;;;16.13;10.32;;;;;;;28.09;49.18;99371.38;5092372;28;20151;-83
2021/06/10 11:20:05;;;;;;;17.08;11.02;;;;;;;28.38;47.06;99382.53;5091581;28;20043;-82
2021/06/10 11:22:39;;;;;;;14.98;11.55;;;;;;;28.21;46.65;99374.63;5092564;28;20078;-83
2021/06/10 11:25:11;;;;;;;17.08;12.05;;;;;;;27.71;46.06;99366.44;5091385;28;20048;-83
2021/06/10 11:31:16;;;;;;;15.23;10.05;;;;;;;28.40;46.02;99362.66;5090762;28;20518;-83
2021/06/10 11:33:42;;;;;;;17.30;10.85;;;;;;;27.44;47.06;99369.75;5090932;28;20061;-83
2021/06/10 11:36:15;;;;;;;13.30;10.00;;;;;;;27.08;48.58;99358.00;5091390;28;20052;-82
2021/06/10 11:38:43;;;;;;;12.85;10.60;;;;;;;26.73;47.63;99352.34;5088755;28;20048;-84
2021/06/10 11:41:12;;;;;;;14.00;9.45;;;;;;;26.62;45.95;99359.09;5092171;28;20121;-82
2021/06/10 11:43:41;;;;;;;13.65;10.68;;;;;;;26.84;47.01;99364.28;5090200;28;20044;-82
2021/06/10 11:46:08;;;;;;;12.05;10.15;;;;;;;27.30;46.71;99372.34;5091315;28;20169;-82
2021/06/10 11:48:42;;;;;;;14.93;10.57;;;;;;;27.49;46.10;99366.06;5090900;28;20052;-82
2021/06/10 11:51:17;;;;;;;11.30;9.30;;;;;;;26.98;48.65;99356.94;5090983;28;20056;-83
2021/06/10 11:53:44;;;;;;;11.13;10.02;;;;;;;27.15;46.42;99362.13;5079549;28;20500;-83
2021/06/10 11:56:12;;;;;;;11.13;9.18;;;;;;;27.71;47.47;99344.09;5085083;28;20101;-82